Time;durP1;ratioP1;P1;durP2;ratioP2;P2;SDS_P1;SDS_P2;PMS_P1;PMS_P2;Temp;Humidity;BMP_temperature;BMP_pressure;BME280_temperature;BME280_humidity;BME280_pressure;Samples;Min_cycle;Max_cycle;Signal;HPM_P1;HPM_P2
2022/01/23 00:00:18;;;;;;;13.57;3.05;;;5.80;99.90;;;;;;5041394;28;20041;-72
2022/01/23 00:02:54;;;;;;;3.25;2.30;;;5.80;99.90;;;;;;5050120;28;20604;-72
2022/01/23 00:05:21;;;;;;;8.10;3.40;;;5.80;99.90;;;;;;5049140;28;20060;-72
2022/01/23 00:07:47;;;;;;;4.20;2.45;;;5.70;99.90;;;;;;5050235;28;20476;-72
2022/01/23 00:10:13;;;;;;;6.13;3.10;;;5.70;99.90;;;;;;5048697;28;20124;-71
2022/01/23 00:12:50;;;;;;;4.50;2.53;;;5.70;99.90;;;;;;5049985;28;20059;-72
2022/01/23 00:18:00;;;;;;;6.00;2.45;;;5.70;99.90;;;;;;5050146;28;20496;-71
2022/01/23 00:20:26;;;;;;;8.00;2.83;;;5.70;99.90;;;;;;5048239;28;20049;-71
2022/01/23 00:22:58;;;;;;;4.63;2.28;;;5.70;99.90;;;;;;5045085;28;20061;-71
2022/01/23 00:30:57;;;;;;;7.07;2.67;;;5.60;99.90;;;;;;5049457;28;20049;-72
2022/01/23 00:33:23;;;;;;;10.68;3.08;;;5.60;99.90;;;;;;5051058;28;20418;-72
2022/01/23 00:35:49;;;;;;;7.93;2.40;;;5.60;99.90;;;;;;5049769;28;20057;-71
2022/01/23 00:38:15;;;;;;;5.55;2.63;;;6.50;99.90;;;;;;5046865;28;20053;-73
2022/01/23 00:40:43;;;;;;;3.90;2.97;;;5.60;99.90;;;;;;5042901;28;20045;-71
2022/01/23 00:43:28;;;;;;;7.22;4.18;;;5.60;99.90;;;;;;5044027;28;20141;-72
2022/01/23 00:46:09;;;;;;;4.30;2.63;;;5.60;99.90;;;;;;5049124;28;20403;-73
2022/01/23 00:48:50;;;;;;;3.80;2.60;;;5.60;99.90;;;;;;5050251;28;20063;-73
2022/01/23 00:51:16;;;;;;;5.38;2.92;;;5.70;99.90;;;;;;5049001;28;20419;-73
2022/01/23 00:53:41;;;;;;;4.03;2.90;;;5.60;99.90;;;;;;5050041;28;20097;-73
2022/01/23 00:56:07;;;;;;;5.75;3.22;;;5.60;99.90;;;;;;5049943;28;20049;-73
2022/01/23 00:58:32;;;;;;;6.68;2.80;;;5.60;99.90;;;;;;5047781;28;20132;-73
2022/01/23 01:00:58;;;;;;;7.97;2.80;;;5.60;99.90;;;;;;5049164;28;20079;-73
2022/01/23 01:03:23;;;;;;;3.78;2.83;;;5.70;99.90;;;;;;5049093;28;20496;-73
2022/01/23 01:05:49;;;;;;;7.75;3.40;;;5.60;99.90;;;;;;5048769;28;20052;-73
2022/01/23 01:08:15;;;;;;;12.95;4.07;;;5.60;99.90;;;;;;5049613;28;20057;-73
2022/01/23 01:10:56;;;;;;;12.55;4.07;;;5.70;99.90;;;;;;5050157;28;20060;-73
2022/01/23 01:13:24;;;;;;;5.77;3.40;;;5.70;99.90;;;;;;5050462;28;20403;-73
2022/01/23 01:16:23;;;;;;;7.55;4.00;;;5.70;99.90;;;;;;5049491;28;20045;-73
2022/01/23 01:32:42;;;;;;;6.88;4.22;;;5.60;99.90;;;;;;5049645;28;20406;-73
2022/01/23 01:37:45;;;;;;;8.60;4.05;;;5.60;99.90;;;;;;5077776;28;20057;-73
2022/01/23 01:40:11;;;;;;;6.97;3.60;;;5.60;99.90;;;;;;5048479;28;20044;-73
2022/01/23 01:42:36;;;;;;;8.45;3.63;;;5.60;99.90;;;;;;5049822;28;20124;-73
2022/01/23 01:45:03;;;;;;;7.57;4.20;;;5.60;99.90;;;;;;5049242;28;20159;-73
2022/01/23 01:47:29;;;;;;;6.05;4.47;;;5.60;99.90;;;;;;5048632;28;20376;-73
2022/01/23 01:49:54;;;;;;;6.22;3.38;;;5.60;99.90;;;;;;5049756;28;20077;-73
2022/01/23 01:52:20;;;;;;;6.07;3.63;;;5.70;99.90;;;;;;5049532;28;20404;-73
2022/01/23 01:54:47;;;;;;;12.50;4.93;;;5.70;99.90;;;;;;5082441;28;20073;-73
2022/01/23 01:57:14;;;;;;;5.20;3.47;;;5.60;99.90;;;;;;5049201;28;20102;-73
2022/01/23 02:10:32;;;;;;;9.20;3.40;;;5.60;99.90;;;;;;5049228;28;20052;-73
2022/01/23 02:13:09;;;;;;;8.43;3.97;;;5.60;99.90;;;;;;5049277;28;20095;-73
2022/01/23 02:16:03;;;;;;;7.07;4.30;;;5.60;99.90;;;;;;5049798;28;20075;-73
2022/01/23 02:24:10;;;;;;;5.30;2.85;;;5.60;99.90;;;;;;5049302;28;20623;-73
2022/01/23 02:54:24;;;;;;;8.32;3.90;;;5.60;99.90;;;;;;5052476;28;20055;-73
2022/01/23 02:56:54;;;;;;;;;;;5.60;99.90;;;;;;5053361;28;20388;-73
2022/01/23 03:04:33;;;;;;;7.60;4.20;;;5.60;99.90;;;;;;5051853;28;20048;-73
2022/01/23 03:26:17;;;;;;;10.88;3.85;;;5.60;99.90;;;;;;5051312;28;20107;-73
2022/01/23 03:29:15;;;;;;;7.38;3.20;;;5.50;99.90;;;;;;5052099;28;20057;-72
2022/01/23 03:31:56;;;;;;;8.77;3.83;;;5.60;99.90;;;;;;5052244;28;20099;-73
2022/01/23 03:34:25;;;;;;;4.38;3.15;;;5.60;99.90;;;;;;5051232;28;20124;-73
2022/01/23 03:36:51;;;;;;;9.82;4.22;;;5.60;99.90;;;;;;5051948;28;20372;-73
2022/01/23 03:39:17;;;;;;;7.65;3.95;;;5.60;99.90;;;;;;5050528;28;20041;-73
2022/01/23 03:41:44;;;;;;;5.13;3.58;;;5.60;99.90;;;;;;5051839;28;20047;-73
2022/01/23 03:44:13;;;;;;;7.57;3.90;;;5.50;99.90;;;;;;5051398;28;20530;-73
2022/01/23 03:47:13;;;;;;;4.53;3.50;;;5.60;99.90;;;;;;5084729;28;20049;-73
2022/01/23 03:49:37;;;;;;;4.97;3.08;;;5.60;99.90;;;;;;5051684;28;20053;-73
2022/01/23 03:52:06;;;;;;;8.50;3.95;;;5.50;99.90;;;;;;5051485;28;20053;-73
2022/01/23 03:54:33;;;;;;;7.28;3.35;;;5.50;99.90;;;;;;5050783;28;20094;-73
2022/01/23 03:57:00;;;;;;;6.18;3.70;;;5.50;99.90;;;;;;5050255;28;20041;-73
2022/01/23 03:59:26;;;;;;;8.80;3.58;;;5.50;99.90;;;;;;5051139;28;20057;-73
2022/01/23 04:01:52;;;;;;;5.90;3.30;;;5.50;99.90;;;;;;5050392;28;20049;-73
2022/01/23 04:07:10;;;;;;;4.05;3.65;;;5.50;99.90;;;;;;5050990;28;20133;-73
2022/01/23 04:09:38;;;;;;;8.52;2.95;;;5.50;99.90;;;;;;5050833;28;20107;-72
2022/01/23 04:12:05;;;;;;;5.38;3.38;;;5.50;99.90;;;;;;5052186;28;20092;-72
2022/01/23 04:14:32;;;;;;;8.95;3.55;;;5.50;99.90;;;;;;5050259;28;20061;-73
2022/01/23 04:19:41;;;;;;;4.57;3.38;;;5.50;99.90;;;;;;5050932;28;20053;-73
2022/01/23 05:00:50;;;;;;;8.25;4.90;;;5.50;99.90;;;;;;5050498;28;20092;-73
2022/01/23 05:06:04;;;;;;;7.93;3.75;;;5.50;99.90;;;;;;5051560;28;20053;-73
2022/01/23 05:08:33;;;;;;;5.25;3.33;;;5.50;99.90;;;;;;5049470;28;20910;-73
2022/01/23 05:11:00;;;;;;;16.02;4.38;;;5.50;99.90;;;;;;5048775;28;20045;-73
2022/01/23 05:13:27;;;;;;;5.65;4.00;;;5.50;99.90;;;;;;5051468;28;20055;-73
2022/01/23 05:15:53;;;;;;;6.60;4.00;;;5.50;99.90;;;;;;5049976;28;20045;-73
2022/01/23 05:18:20;;;;;;;9.25;3.70;;;5.50;99.90;;;;;;5048938;28;20045;-73
2022/01/23 05:20:47;;;;;;;9.95;4.35;;;5.50;99.90;;;;;;5049952;28;20534;-73
2022/01/23 05:23:13;;;;;;;8.50;4.05;;;5.40;99.90;;;;;;5048706;28;20068;-73
2022/01/23 05:25:40;;;;;;;3.83;3.53;;;5.40;99.90;;;;;;5049424;28;20053;-73
2022/01/23 05:28:07;;;;;;;5.30;3.55;;;5.50;99.90;;;;;;5049469;28;20045;-73
2022/01/23 05:30:34;;;;;;;4.78;3.45;;;5.50;99.90;;;;;;5049726;28;20056;-72
2022/01/23 05:33:00;;;;;;;7.80;4.25;;;5.40;99.90;;;;;;5049150;28;20503;-72
2022/01/23 05:35:28;;;;;;;20.15;4.35;;;5.40;99.90;;;;;;5049708;28;20072;-73
2022/01/23 05:37:54;;;;;;;7.43;3.63;;;5.40;99.90;;;;;;5049706;28;20473;-73
2022/01/23 05:40:21;;;;;;;8.00;3.83;;;5.40;99.90;;;;;;5048837;28;20053;-72
2022/01/23 05:42:47;;;;;;;348.90;28.98;;;5.40;99.90;;;;;;5049683;28;20041;-72
2022/01/23 05:45:13;;;;;;;25.85;5.18;;;5.40;99.90;;;;;;5082771;28;20052;-73
2022/01/23 05:47:38;;;;;;;377.92;44.40;;;5.40;99.90;;;;;;5048807;28;20422;-72
2022/01/23 05:50:06;;;;;;;6.97;3.28;;;5.40;99.90;;;;;;5049565;28;20064;-73
2022/01/23 05:52:31;;;;;;;72.75;10.00;;;5.30;99.90;;;;;;5048681;28;20354;-73
2022/01/23 05:54:58;;;;;;;3.60;2.88;;;5.30;99.90;;;;;;5048350;28;20040;-73
2022/01/23 05:57:23;;;;;;;6.53;3.58;;;5.20;99.90;;;;;;5048299;28;20055;-72
2022/01/23 05:59:49;;;;;;;7.57;3.03;;;5.20;99.90;;;;;;5035571;28;20049;-72
2022/01/23 06:02:15;;;;;;;6.10;2.75;;;5.20;99.90;;;;;;5040200;28;20044;-73
2022/01/23 06:04:41;;;;;;;4.55;3.58;;;5.20;99.90;;;;;;5049316;28;20049;-73
2022/01/23 06:07:06;;;;;;;5.88;2.80;;;5.20;99.90;;;;;;5048173;28;20103;-73
2022/01/23 06:09:32;;;;;;;6.22;3.67;;;5.20;99.90;;;;;;5049307;28;20407;-72
2022/01/23 06:11:58;;;;;;;4.13;3.42;;;5.20;99.90;;;;;;5049410;28;20053;-73
2022/01/23 06:14:25;;;;;;;4.82;3.63;;;5.10;99.90;;;;;;5048317;28;20088;-73
2022/01/23 06:16:51;;;;;;;3.35;2.53;;;5.20;99.90;;;;;;5082967;28;20059;-73
2022/01/23 06:19:16;;;;;;;603.90;66.57;;;5.20;99.90;;;;;;5048828;28;20135;-72
2022/01/23 06:21:42;;;;;;;4.53;3.00;;;5.20;99.90;;;;;;5051534;28;20113;-73
2022/01/23 06:24:13;;;;;;;5.85;3.10;;;5.20;99.90;;;;;;5052475;28;20128;-73
2022/01/23 06:26:44;;;;;;;11.43;4.10;;;5.20;99.90;;;;;;5052718;28;20040;-73
2022/01/23 06:29:12;;;;;;;11.88;4.95;;;5.20;99.90;;;;;;5052343;28;20140;-73
2022/01/23 06:31:39;;;;;;;6.75;3.80;;;5.20;99.90;;;;;;5053054;28;20103;-73
2022/01/23 06:34:06;;;;;;;6.72;4.30;;;5.20;99.90;;;;;;5052046;28;20084;-73
2022/01/23 06:36:33;;;;;;;9.07;5.22;;;5.20;99.90;;;;;;5052026;28;20053;-73
2022/01/23 06:38:59;;;;;;;8.82;5.00;;;5.20;99.90;;;;;;5052971;28;20086;-72
2022/01/23 06:41:25;;;;;;;9.45;5.05;;;5.20;99.90;;;;;;5052827;28;20449;-73
2022/01/23 06:43:51;;;;;;;17.85;5.00;;;5.20;99.90;;;;;;5052180;28;20140;-73
2022/01/23 06:46:16;;;;;;;14.18;5.50;;;5.20;99.90;;;;;;5052501;28;20049;-73
2022/01/23 06:48:42;;;;;;;17.05;7.00;;;5.20;99.90;;;;;;5052622;28;20179;-73
2022/01/23 06:51:08;;;;;;;12.95;6.30;;;5.20;99.90;;;;;;5051738;28;20048;-73
2022/01/23 06:53:33;;;;;;;9.88;5.45;;;5.20;99.90;;;;;;5052623;28;20402;-73
2022/01/23 06:55:59;;;;;;;12.13;5.88;;;5.20;99.90;;;;;;5054098;28;20501;-73
2022/01/23 06:58:24;;;;;;;18.08;6.70;;;5.20;99.90;;;;;;5051618;28;20067;-73
2022/01/23 07:00:50;;;;;;;10.02;5.45;;;5.10;99.90;;;;;;5053804;28;20051;-73
2022/01/23 07:03:16;;;;;;;13.57;5.93;;;5.10;99.90;;;;;;5051918;28;20369;-72
2022/01/23 07:05:41;;;;;;;16.02;6.00;;;5.10;99.90;;;;;;5053896;28;20048;-73
2022/01/23 07:08:07;;;;;;;15.02;6.30;;;5.10;99.90;;;;;;5052292;28;20049;-73
2022/01/23 07:10:33;;;;;;;18.42;7.60;;;5.10;99.90;;;;;;5050819;28;20048;-73
2022/01/23 07:12:59;;;;;;;16.05;6.97;;;5.10;99.90;;;;;;5044660;28;20049;-73
2022/01/23 07:15:28;;;;;;;35.58;9.50;;;5.10;99.90;;;;;;5080485;28;20389;-73
2022/01/23 07:17:53;;;;;;;26.35;8.38;;;5.10;99.90;;;;;;5051178;28;20049;-73
2022/01/23 07:20:19;;;;;;;24.98;8.75;;;5.10;99.90;;;;;;5051813;28;20057;-73
2022/01/23 07:22:45;;;;;;;50.55;9.30;;;5.20;99.90;;;;;;5051823;28;20053;-73
2022/01/23 07:25:11;;;;;;;37.70;9.85;;;5.10;99.90;;;;;;5051349;28;20070;-73
2022/01/23 07:27:44;;;;;;;37.08;10.15;;;5.10;99.90;;;;;;5052583;28;20037;-73
2022/01/23 07:30:22;;;;;;;42.30;10.55;;;5.20;99.90;;;;;;5052907;28;20045;-73
2022/01/23 07:32:48;;;;;;;28.20;8.90;;;5.20;99.90;;;;;;5050993;28;20075;-73
2022/01/23 07:35:14;;;;;;;31.35;8.75;;;5.20;99.90;;;;;;5051549;28;20048;-73
2022/01/23 07:37:39;;;;;;;29.45;9.93;;;5.10;99.90;;;;;;5051735;28;20106;-73
2022/01/23 07:40:05;;;;;;;41.10;10.90;;;5.20;99.90;;;;;;5050594;28;20041;-73
2022/01/23 07:42:31;;;;;;;15.50;8.52;;;5.20;99.90;;;;;;5052407;28;20399;-73
2022/01/23 07:44:57;;;;;;;19.83;9.10;;;5.10;99.90;;;;;;5052956;28;20047;-73
2022/01/23 07:47:23;;;;;;;23.13;9.65;;;5.20;99.90;;;;;;5050571;28;20045;-73
2022/01/23 07:49:50;;;;;;;14.82;8.68;;;5.20;99.90;;;;;;5068398;28;20076;-73
2022/01/23 07:52:19;;;;;;;13.68;7.50;;;5.10;99.90;;;;;;5035134;28;20041;-73
2022/01/23 07:54:45;;;;;;;15.55;8.35;;;5.10;99.90;;;;;;5031722;28;20060;-73
2022/01/23 07:57:11;;;;;;;17.20;8.13;;;5.10;99.90;;;;;;5031264;28;20045;-73
2022/01/23 07:59:37;;;;;;;23.40;7.90;;;5.10;99.90;;;;;;5039532;28;20763;-73
2022/01/23 08:02:03;;;;;;;12.98;7.35;;;5.10;99.90;;;;;;5052263;28;20052;-73
2022/01/23 08:04:29;;;;;;;13.90;7.90;;;5.10;99.90;;;;;;5051353;28;20053;-73
2022/01/23 08:07:20;;;;;;;14.27;7.93;;;5.20;99.90;;;;;;5050655;28;20103;-73
2022/01/23 08:09:46;;;;;;;15.05;8.07;;;5.20;99.90;;;;;;5051157;28;20041;-73
2022/01/23 08:12:11;;;;;;;12.00;6.95;;;5.20;99.90;;;;;;5050209;28;20075;-73
2022/01/23 08:14:37;;;;;;;15.52;7.43;;;5.20;99.90;;;;;;5050579;28;20104;-73
2022/01/23 08:17:03;;;;;;;14.68;7.15;;;5.20;99.90;;;;;;5050768;28;20453;-73
2022/01/23 08:19:28;;;;;;;12.57;7.28;;;5.20;99.90;;;;;;5050952;28;20049;-73
2022/01/23 08:21:54;;;;;;;9.27;7.13;;;5.20;99.90;;;;;;5049903;28;20832;-73
2022/01/23 08:24:19;;;;;;;14.10;6.15;;;5.20;99.90;;;;;;5050476;28;20060;-73
2022/01/23 08:26:45;;;;;;;11.60;7.43;;;5.30;99.90;;;;;;5050867;28;20052;-73
2022/01/23 08:29:10;;;;;;;9.60;6.65;;;5.30;99.90;;;;;;5048908;28;20056;-73
2022/01/23 08:31:36;;;;;;;11.57;5.30;;;5.30;99.90;;;;;;5050667;28;20049;-73
2022/01/23 08:34:02;;;;;;;11.65;5.63;;;5.30;99.90;;;;;;5050581;28;20056;-73
2022/01/23 08:36:29;;;;;;;12.73;5.78;;;5.40;99.90;;;;;;5051305;28;20040;-73
2022/01/23 08:38:55;;;;;;;10.32;4.57;;;5.40;99.90;;;;;;5050438;28;20053;-73
2022/01/23 08:43:50;;;;;;;9.32;5.43;;;5.40;99.90;;;;;;5049496;28;20102;-73
2022/01/23 08:46:16;;;;;;;6.20;4.40;;;5.40;99.90;;;;;;5047762;28;20086;-73
2022/01/23 08:48:42;;;;;;;11.13;5.20;;;5.40;99.90;;;;;;5046851;28;20450;-73
2022/01/23 08:51:11;;;;;;;7.03;4.30;;;5.40;99.90;;;;;;5050385;28;20059;-73
2022/01/23 08:53:38;;;;;;;8.18;4.95;;;5.50;99.90;;;;;;5050367;28;20049;-73
2022/01/23 08:56:05;;;;;;;7.47;4.80;;;5.50;99.90;;;;;;5049614;28;20091;-73
2022/01/23 08:58:30;;;;;;;5.88;4.13;;;5.50;99.90;;;;;;5045745;28;20119;-73
2022/01/23 09:00:56;;;;;;;5.53;4.32;;;5.50;99.90;;;;;;5069404;28;20500;-72
2022/01/23 09:03:22;;;;;;;215.88;25.80;;;5.60;99.90;;;;;;5047305;28;20409;-71
2022/01/23 09:05:47;;;;;;;14.85;5.88;;;5.50;99.90;;;;;;5049407;28;20103;-72
2022/01/23 09:08:13;;;;;;;7.85;5.13;;;5.60;99.90;;;;;;5049675;28;20057;-72
2022/01/23 09:10:52;;;;;;;8.48;5.57;;;5.60;99.90;;;;;;5048958;28;20384;-72
2022/01/23 09:16:03;;;;;;;6.95;4.88;;;5.60;99.90;;;;;;5039564;28;20060;-72
2022/01/23 09:18:29;;;;;;;6.97;4.93;;;5.60;99.90;;;;;;5049032;28;20041;-73
2022/01/23 09:20:54;;;;;;;6.20;5.30;;;5.70;99.90;;;;;;5050037;28;20048;-72
2022/01/23 09:23:20;;;;;;;5.93;4.70;;;5.70;99.90;;;;;;5050824;28;20068;-74
2022/01/23 09:25:46;;;;;;;5.25;4.50;;;5.70;99.90;;;;;;5049552;28;20453;-73
2022/01/23 09:28:12;;;;;;;6.60;4.90;;;5.70;99.90;;;;;;5049452;28;20514;-68
2022/01/23 09:30:43;;;;;;;4.68;4.20;;;5.80;99.90;;;;;;5050097;28;20492;-71
2022/01/23 09:33:09;;;;;;;7.47;5.43;;;6.00;99.90;;;;;;5048632;28;20087;-76
2022/01/23 09:35:35;;;;;;;6.70;5.85;;;5.90;99.90;;;;;;5046778;28;20461;-78
2022/01/23 09:38:00;;;;;;;9.60;5.90;;;5.90;99.90;;;;;;5044168;28;20099;-74
2022/01/23 09:40:26;;;;;;;7.38;5.93;;;5.90;99.90;;;;;;5048408;28;20099;-76
2022/01/23 09:43:01;;;;;;;7.07;5.35;;;5.90;99.90;;;;;;5048440;28;20080;-72
2022/01/23 09:45:29;;;;;;;6.70;4.82;;;6.00;99.90;;;;;;5048370;28;20083;-73
2022/01/23 09:47:55;;;;;;;7.35;5.65;;;6.00;99.90;;;;;;5048558;28;20400;-74
2022/01/23 09:50:21;;;;;;;6.55;5.32;;;6.10;99.90;;;;;;5048982;28;20053;-75
2022/01/23 09:52:47;;;;;;;6.90;5.50;;;6.10;99.90;;;;;;5048446;28;20060;-74
2022/01/23 09:55:13;;;;;;;6.70;4.85;;;6.10;99.90;;;;;;5046898;28;20540;-75
2022/01/23 09:57:43;;;;;;;8.52;5.45;;;6.10;99.90;;;;;;5050103;28;20518;-75
2022/01/23 10:00:14;;;;;;;8.20;5.53;;;6.10;99.90;;;;;;5047834;28;20097;-75
2022/01/23 10:02:41;;;;;;;6.03;3.85;;;6.20;99.90;;;;;;5050409;28;20442;-75
2022/01/23 10:05:07;;;;;;;5.25;3.35;;;6.20;99.90;;;;;;5048573;28;20045;-75
2022/01/23 10:07:41;;;;;;;5.13;3.70;;;6.20;99.90;;;;;;5038465;28;20485;-75
2022/01/23 10:10:19;;;;;;;3.03;2.72;;;6.30;99.90;;;;;;5048571;28;20135;-75
2022/01/23 10:12:55;;;;;;;3.63;3.10;;;6.30;99.90;;;;;;5049672;28;20442;-75
2022/01/23 10:15:21;;;;;;;3.42;2.88;;;6.30;99.90;;;;;;5046575;28;20382;-75
2022/01/23 10:17:47;;;;;;;3.25;2.95;;;6.40;99.90;;;;;;5048804;28;20053;-74
2022/01/23 10:20:14;;;;;;;4.15;3.08;;;6.40;99.90;;;;;;5047665;28;20045;-75
2022/01/23 10:22:44;;;;;;;3.50;2.65;;;6.40;99.90;;;;;;5048587;28;20055;-76
2022/01/23 10:25:15;;;;;;;6.35;3.67;;;6.40;99.90;;;;;;5048127;28;20072;-74
2022/01/23 10:28:03;;;;;;;5.22;3.20;;;6.40;99.90;;;;;;5048043;28;20041;-74
2022/01/23 10:30:35;;;;;;;4.43;3.78;;;6.50;99.90;;;;;;5050122;28;20084;-73
2022/01/23 10:33:11;;;;;;;3.55;2.72;;;6.50;99.90;;;;;;5048592;28;20492;-74
2022/01/23 10:36:00;;;;;;;3.22;2.67;;;6.50;99.90;;;;;;5048186;28;20052;-73
2022/01/23 10:38:51;;;;;;;4.82;2.35;;;6.50;99.90;;;;;;5048861;28;20041;-72
2022/01/23 10:50:06;;;;;;;4.90;4.15;;;6.70;99.90;;;;;;5047617;28;20052;-72
2022/01/23 10:52:38;;;;;;;3.38;2.92;;;6.70;99.90;;;;;;5048316;28;20132;-72
2022/01/23 10:55:12;;;;;;;4.28;2.65;;;6.70;99.90;;;;;;5047046;28;20108;-72
2022/01/23 10:57:43;;;;;;;3.25;2.85;;;6.70;99.90;;;;;;5044701;28;20061;-73
2022/01/23 11:00:39;;;;;;;3.88;3.13;;;6.70;99.90;;;;;;5047820;28;20045;-72
2022/01/23 11:03:20;;;;;;;3.47;2.58;;;6.80;99.90;;;;;;5027375;28;20045;-72
2022/01/23 11:05:48;;;;;;;3.70;2.80;;;6.80;99.90;;;;;;5043711;28;20532;-72
2022/01/23 11:08:30;;;;;;;8.23;3.40;;;6.90;99.90;;;;;;5051602;28;20052;-72
2022/01/23 11:10:57;;;;;;;3.53;2.67;;;6.80;99.90;;;;;;5050957;28;20707;-72
2022/01/23 11:19:41;;;;;;;4.95;2.60;;;6.90;99.90;;;;;;5049520;28;20049;-73
2022/01/23 11:22:18;;;;;;;3.70;2.85;;;6.90;99.90;;;;;;5050489;28;20086;-72
2022/01/23 11:24:47;;;;;;;4.60;3.10;;;7.00;99.90;;;;;;5049346;28;20423;-72
2022/01/23 11:27:14;;;;;;;3.30;2.53;;;7.00;99.90;;;;;;5050557;28;20499;-72
2022/01/23 11:29:55;;;;;;;3.30;2.67;;;7.00;99.90;;;;;;5051054;28;20052;-71
2022/01/23 11:32:22;;;;;;;3.20;2.72;;;7.00;99.90;;;;;;5050235;28;20225;-72
2022/01/23 11:34:50;;;;;;;3.85;2.75;;;7.00;99.90;;;;;;5051326;28;20126;-72
2022/01/23 11:37:16;;;;;;;3.67;2.97;;;7.10;99.90;;;;;;5052451;28;20103;-71
2022/01/23 11:39:50;;;;;;;3.85;2.85;;;7.10;99.90;;;;;;5050399;28;20451;-72
2022/01/23 11:56:44;;;;;;;6.90;3.17;;;7.10;99.90;;;;;;5050374;28;20084;-71
2022/01/23 11:59:15;;;;;;;4.68;4.05;;;7.10;99.90;;;;;;5012196;28;20061;-72
2022/01/23 12:01:43;;;;;;;3.20;2.90;;;7.00;99.90;;;;;;5031626;28;20067;-72
2022/01/23 12:04:09;;;;;;;4.60;3.05;;;7.00;99.90;;;;;;5050489;28;20052;-73
2022/01/23 12:06:41;;;;;;;4.60;2.67;;;7.10;99.90;;;;;;5049905;28;20110;-74
2022/01/23 12:09:13;;;;;;;2.97;2.58;;;7.00;99.90;;;;;;5050343;28;20472;-72
2022/01/23 12:16:22;;;;;;;3.92;2.78;;;7.10;99.90;;;;;;5049278;28;20110;-73
2022/01/23 12:16:58;;;;;;;3.05;2.78;;;7.10;99.90;;;;;;5045505;28;20055;-73
2022/01/23 12:19:25;;;;;;;6.90;2.72;;;7.10;99.90;;;;;;5049121;28;20084;-72
2022/01/23 12:21:54;;;;;;;5.80;2.67;;;7.10;99.90;;;;;;5050230;28;20041;-71
2022/01/23 12:24:22;;;;;;;3.45;2.33;;;7.10;99.90;;;;;;5045062;28;20057;-71
2022/01/23 12:26:49;;;;;;;3.30;2.72;;;7.10;99.90;;;;;;5029708;28;20085;-71
2022/01/23 12:29:25;;;;;;;3.30;3.00;;;7.10;99.90;;;;;;5030060;28;20053;-72
2022/01/23 12:32:26;;;;;;;3.88;2.83;;;7.10;99.90;;;;;;5030588;28;20049;-71
2022/01/23 12:35:01;;;;;;;3.05;2.70;;;7.10;99.90;;;;;;5050208;28;20041;-71
2022/01/23 12:37:56;;;;;;;2.67;2.45;;;7.10;99.90;;;;;;5050949;28;20037;-71
2022/01/23 12:40:26;;;;;;;4.97;2.92;;;7.10;99.90;;;;;;5048350;28;20444;-73
2022/01/23 12:43:10;;;;;;;3.83;2.40;;;7.10;99.90;;;;;;5048842;28;20045;-72
2022/01/23 12:45:43;;;;;;;3.15;2.58;;;7.10;99.90;;;;;;5050154;28;20053;-73
2022/01/23 12:48:29;;;;;;;4.38;2.53;;;7.10;99.90;;;;;;5050132;28;20068;-73
2022/01/23 12:51:03;;;;;;;2.42;2.22;;;7.10;99.90;;;;;;5051013;28;20053;-73
2022/01/23 12:53:35;;;;;;;3.30;2.90;;;7.10;99.90;;;;;;5050106;28;20183;-73
2022/01/23 12:56:08;;;;;;;3.67;2.45;;;7.10;99.90;;;;;;5048937;28;20063;-73
2022/01/23 12:58:34;;;;;;;2.53;2.05;;;7.10;99.90;;;;;;5049804;28;20048;-73
2022/01/23 13:01:05;;;;;;;3.38;2.42;;;7.10;99.90;;;;;;5049622;28;20056;-72
2022/01/23 13:03:31;;;;;;;4.75;2.58;;;7.10;99.90;;;;;;5049353;28;20049;-72
2022/01/23 13:05:56;;;;;;;3.00;2.67;;;7.10;99.90;;;;;;5040548;28;20036;-72
2022/01/23 13:08:28;;;;;;;5.40;2.80;;;7.10;99.90;;;;;;5049245;28;20049;-73
2022/01/23 13:11:21;;;;;;;3.75;2.83;;;7.20;99.90;;;;;;5048582;28;20068;-73
2022/01/23 13:14:03;;;;;;;6.35;3.22;;;7.20;99.90;;;;;;5049992;28;20041;-74
2022/01/23 13:16:37;;;;;;;6.75;3.90;;;7.20;99.90;;;;;;5049527;28;20128;-73
2022/01/23 13:19:22;;;;;;;5.13;3.65;;;7.20;99.90;;;;;;5049550;28;20175;-75
2022/01/23 13:28:24;;;;;;;4.18;3.35;;;7.20;99.90;;;;;;5049563;28;20061;-74
2022/01/23 13:30:30;;;;;;;5.07;3.80;;;7.10;99.90;;;;;;5048790;28;20139;-75
2022/01/23 13:33:07;;;;;;;5.57;4.32;;;7.10;99.90;;;;;;5050023;28;20369;-74
2022/01/23 13:35:41;;;;;;;6.70;4.40;;;7.10;99.90;;;;;;5048904;28;20128;-74
2022/01/23 13:38:13;;;;;;;10.50;4.35;;;7.10;99.90;;;;;;5047849;28;20071;-75
2022/01/23 13:40:42;;;;;;;4.95;3.97;;;7.10;99.90;;;;;;5049064;28;20408;-74
2022/01/23 13:59:18;;;;;;;5.00;4.50;;;7.00;99.90;;;;;;5047529;28;20491;-74
2022/01/23 14:04:23;;;;;;;5.72;3.95;;;7.00;99.90;;;;;;5048304;28;20087;-74
2022/01/23 14:06:49;;;;;;;4.78;3.50;;;7.00;99.90;;;;;;5048309;28;20415;-74
2022/01/23 14:09:20;;;;;;;5.32;4.15;;;7.00;99.90;;;;;;5048438;28;20060;-74
2022/01/23 14:11:46;;;;;;;9.50;4.05;;;7.00;99.90;;;;;;5048619;28;20049;-72
2022/01/23 14:14:18;;;;;;;6.32;4.22;;;7.00;99.90;;;;;;5047449;28;20045;-73
2022/01/23 14:16:45;;;;;;;8.38;3.78;;;7.00;99.90;;;;;;5048474;28;20052;-72
2022/01/23 14:19:18;;;;;;;6.40;3.20;;;7.00;99.90;;;;;;5047485;28;20610;-72
2022/01/23 14:21:48;;;;;;;6.13;3.65;;;7.00;99.90;;;;;;5048575;28;20053;-72
2022/01/23 14:24:29;;;;;;;8.27;4.15;;;7.00;99.90;;;;;;5047773;28;20076;-73
2022/01/23 14:27:10;;;;;;;6.95;3.97;;;7.00;99.90;;;;;;5049038;28;20068;-73
2022/01/23 14:29:51;;;;;;;5.30;4.00;;;7.00;99.90;;;;;;5048627;28;20049;-74
2022/01/23 14:32:34;;;;;;;5.22;3.97;;;7.00;99.90;;;;;;5047858;28;20124;-74
2022/01/23 14:35:06;;;;;;;8.48;3.83;;;6.90;99.90;;;;;;5046966;28;20045;-73
2022/01/23 14:37:31;;;;;;;6.38;4.80;;;6.90;99.90;;;;;;5048226;28;20115;-74
2022/01/23 14:40:15;;;;;;;4.70;4.10;;;6.90;99.90;;;;;;5048131;28;20499;-72
2022/01/23 14:43:13;;;;;;;9.13;4.10;;;6.90;99.90;;;;;;5051448;28;20084;-73
2022/01/23 14:45:41;;;;;;;4.95;3.63;;;6.90;99.90;;;;;;5080958;28;20149;-72
2022/01/23 14:48:09;;;;;;;7.13;4.43;;;6.90;99.90;;;;;;5051018;28;20079;-72
2022/01/23 14:50:39;;;;;;;9.05;4.72;;;6.90;99.90;;;;;;5053373;28;20104;-73
2022/01/23 14:53:16;;;;;;;7.82;4.18;;;6.90;99.90;;;;;;5051464;28;20063;-74
2022/01/23 14:55:48;;;;;;;7.60;4.70;;;6.90;99.90;;;;;;5049782;28;20068;-74
2022/01/23 14:58:17;;;;;;;7.43;4.25;;;6.90;99.90;;;;;;5051121;28;20053;-74
2022/01/23 15:00:43;;;;;;;5.38;3.83;;;6.90;99.90;;;;;;5052032;28;20103;-73
2022/01/23 15:03:09;;;;;;;8.98;4.35;;;6.90;99.90;;;;;;5050651;28;20052;-74
2022/01/23 15:05:38;;;;;;;6.57;4.38;;;6.80;99.90;;;;;;5052880;28;20056;-74
2022/01/23 15:08:07;;;;;;;12.10;4.82;;;6.90;99.90;;;;;;5051449;28;20053;-74
2022/01/23 15:10:33;;;;;;;8.98;3.95;;;6.80;99.90;;;;;;5052974;28;20051;-74
2022/01/23 15:12:58;;;;;;;5.95;4.10;;;6.80;99.90;;;;;;5052369;28;20128;-74
2022/01/23 15:15:25;;;;;;;7.95;4.35;;;6.80;99.90;;;;;;5050937;28;20454;-73
2022/01/23 15:17:51;;;;;;;7.68;3.88;;;6.80;99.90;;;;;;5052228;28;20106;-73
2022/01/23 15:20:17;;;;;;;6.90;4.78;;;6.70;99.90;;;;;;5042256;28;20049;-73
2022/01/23 15:22:44;;;;;;;6.80;4.65;;;6.70;99.90;;;;;;5045098;28;20057;-73
2022/01/23 15:25:12;;;;;;;4.78;3.50;;;6.70;99.90;;;;;;5051635;28;20484;-73
2022/01/23 15:27:40;;;;;;;7.82;4.85;;;6.70;99.90;;;;;;5051426;28;20135;-73
2022/01/23 15:30:09;;;;;;;7.75;4.60;;;6.70;99.90;;;;;;5050726;28;20041;-73
2022/01/23 15:32:35;;;;;;;6.47;4.65;;;6.70;99.90;;;;;;5051231;28;20045;-73
2022/01/23 15:35:03;;;;;;;4.90;4.25;;;6.70;99.90;;;;;;5052966;28;20049;-74
2022/01/23 15:37:28;;;;;;;9.75;5.25;;;6.60;99.90;;;;;;5051500;28;20095;-74
2022/01/23 15:39:54;;;;;;;7.75;5.07;;;6.60;99.90;;;;;;5050381;28;20080;-74
2022/01/23 15:42:20;;;;;;;8.00;5.63;;;6.60;99.90;;;;;;5050934;28;20040;-74
2022/01/23 15:44:45;;;;;;;7.43;5.18;;;6.60;99.90;;;;;;5050553;28;20446;-71
2022/01/23 15:47:11;;;;;;;6.35;4.82;;;6.60;99.90;;;;;;5051432;28;20510;-71
2022/01/23 15:49:37;;;;;;;5.63;4.53;;;6.60;99.90;;;;;;5051669;28;20478;-71
2022/01/23 15:52:03;;;;;;;4.45;3.75;;;6.60;99.90;;;;;;5049384;28;20090;-71
2022/01/23 15:54:29;;;;;;;5.50;4.63;;;6.50;99.90;;;;;;5051553;28;20522;-71
2022/01/23 15:56:56;;;;;;;7.35;5.28;;;6.50;99.90;;;;;;5051455;28;20131;-72
2022/01/23 15:59:22;;;;;;;7.60;5.32;;;6.50;99.90;;;;;;5050357;28;20131;-71
2022/01/23 16:01:50;;;;;;;5.63;4.53;;;6.50;99.90;;;;;;5051397;28;20495;-70
2022/01/23 16:04:17;;;;;;;10.27;4.45;;;6.50;99.90;;;;;;5051094;28;20064;-70
2022/01/23 16:06:44;;;;;;;4.30;3.90;;;6.40;99.90;;;;;;5050828;28;20127;-71
2022/01/23 16:09:10;;;;;;;4.85;4.43;;;6.50;99.90;;;;;;5050239;28;20049;-72
2022/01/23 16:11:36;;;;;;;6.20;4.47;;;6.40;99.90;;;;;;5049773;28;20090;-71
2022/01/23 16:14:02;;;;;;;8.65;5.43;;;6.40;99.90;;;;;;5050313;28;20131;-71
2022/01/23 16:16:27;;;;;;;6.20;5.20;;;6.40;99.90;;;;;;5050641;28;20053;-71
2022/01/23 16:18:53;;;;;;;6.78;4.93;;;6.40;99.90;;;;;;5050333;28;20107;-71
2022/01/23 16:21:19;;;;;;;5.47;4.90;;;6.40;99.90;;;;;;5052173;28;20060;-71
2022/01/23 16:23:45;;;;;;;6.63;4.72;;;6.40;99.90;;;;;;5051258;28;20135;-71
2022/01/23 16:26:12;;;;;;;7.95;5.68;;;6.40;99.90;;;;;;5051461;28;20103;-71
2022/01/23 16:28:38;;;;;;;4.15;3.75;;;6.40;99.90;;;;;;5051193;28;20047;-71